»·PEaware :: N1940F KBZN-KHLN

N1940F :: KBZN-KHLN

FLIGHT INFORMATION

Flight Status: Arrived
Operator: Privately registered:
United States
More flights under this callsign
Pilot: Pratham R. (19019)
Aircraft: SOCATA TBM-900
(TBM9)
More flights by this aircraft type
Origin: KBZN Gallatin
United States
Destination: KHLN Helena Regl
United States
More flights between these airports :: More routes between these airports
Route: TEERX4 HIA V21 HLN
File this flight plan on PilotEdge
Remarks: RMK / SIMBRIEF LOC / DME BC-C
Altitude:
(Current/Filed)
16,000ft
Speed:
(Current/Filed)
284kts
Departed: 17-Mar-20 04:01 PM
Arrived: 17-Mar-20 04:35 PM
Distance/Time
Traveled:
60nm/0:34
Distance/Time
To Go:
Arrived

Flight Plot

Page will automatically refresh every two minutes.

Flight plan parsing failed; only flown route is shown


Map Options




Map Legend


Flown Route
Filed Route
Departure Airport
Arrival Airport
Navaid (VOR, NDB)
Fix

Horizontal Profiles

Position Reports

Time Latitude Longitude Heading Altitude Ground
Speed
17-Mar-20 15:39 45.772875 -111.152013 318 4463ft 0kts
17-Mar-20 15:40 45.772875 -111.152013 318 4463ft 0kts
17-Mar-20 15:41 45.772875 -111.152014 318 4463ft 0kts
17-Mar-20 15:42 45.772875 -111.152013 318 4463ft 0kts
17-Mar-20 15:43 45.772875 -111.152013 318 4463ft 0kts
17-Mar-20 15:44 45.772875 -111.152013 318 4463ft 0kts
17-Mar-20 15:45 45.772875 -111.152013 318 4463ft 0kts
17-Mar-20 15:46 45.772875 -111.152013 318 4463ft 0kts
17-Mar-20 15:47 45.772875 -111.152013 318 4463ft 0kts
17-Mar-20 15:48 45.772875 -111.152013 318 4463ft 0kts
17-Mar-20 15:49 45.772875 -111.152013 318 4463ft 0kts
17-Mar-20 15:50 45.772875 -111.152013 318 4463ft 0kts
17-Mar-20 15:51 45.772875 -111.152013 318 4463ft 0kts
17-Mar-20 15:52 45.773279 -111.152529 318 4462ft 6kts
17-Mar-20 15:53 45.773852 -111.153195 338 4461ft 6kts
17-Mar-20 15:54 45.774194 -111.151300 136 4460ft 8kts
17-Mar-20 15:55 45.771714 -111.147883 135 4464ft 11kts
17-Mar-20 15:56 45.770200 -111.145796 137 4465ft 7kts
17-Mar-20 15:57 45.769425 -111.145214 96 4466ft 0kts
17-Mar-20 15:58 45.769246 -111.144205 91 4466ft 5kts
17-Mar-20 15:59 45.770492 -111.142326 1 4464ft 6kts
17-Mar-20 16:00 45.775287 -111.148730 316 4456ft 111kts
17-Mar-20 16:01 45.791415 -111.193433 245 6112ft 145kts
17-Mar-20 16:02 45.777381 -111.245208 250 8150ft 144kts
17-Mar-20 16:03 45.760755 -111.308042 250 9504ft 182kts
17-Mar-20 16:04 45.741977 -111.378509 250 10753ft 197kts
17-Mar-20 16:05 45.725649 -111.454693 279 11965ft 203kts
17-Mar-20 16:06 45.739585 -111.533281 285 13186ft 202kts
17-Mar-20 16:07 45.754633 -111.610771 285 14377ft 200kts
17-Mar-20 16:08 45.769404 -111.686869 284 15562ft 196kts
17-Mar-20 16:09 45.784701 -111.765965 284 16001ft 220kts
17-Mar-20 16:10 45.801890 -111.855219 284 15980ft 238kts
17-Mar-20 16:11 45.819863 -111.948430 283 15938ft 245kts
17-Mar-20 16:12 45.838023 -112.044203 283 15936ft 252kts
17-Mar-20 16:14 45.857160 -112.141801 294 15908ft 256kts
17-Mar-20 16:15 45.923532 -112.152164 11 15931ft 263kts
17-Mar-20 16:16 45.995803 -112.131187 11 15927ft 264kts
17-Mar-20 16:17 46.067908 -112.110430 11 15928ft 265kts
17-Mar-20 16:18 46.140399 -112.089517 11 15410ft 263kts
17-Mar-20 16:19 46.211132 -112.069041 11 14394ft 256kts
17-Mar-20 16:20 46.280354 -112.048924 11 13389ft 252kts
17-Mar-20 16:21 46.347701 -112.029332 11 12184ft 240kts
17-Mar-20 16:22 46.402200 -112.051014 279 10967ft 227kts
17-Mar-20 16:23 46.425607 -112.127302 304 10912ft 189kts
17-Mar-20 16:24 46.459055 -112.183641 315 10780ft 173kts
17-Mar-20 16:25 46.497560 -112.225384 328 10930ft 175kts
17-Mar-20 16:26 46.543423 -112.254722 341 10466ft 187kts
17-Mar-20 16:27 46.596608 -112.268333 355 9600ft 198kts
17-Mar-20 16:28 46.651786 -112.262678 27 8999ft 191kts
17-Mar-20 16:29 46.641221 -112.196552 113 8009ft 204kts
17-Mar-20 16:29 46.629837 -112.134906 102 7218ft 182kts
17-Mar-20 16:30 46.618773 -112.064171 101 5805ft 173kts
17-Mar-20 16:32 46.634490 -111.990044 66 4976ft 152kts
17-Mar-20 16:33 46.626394 -111.931545 142 4761ft 156kts
17-Mar-20 16:33 46.602495 -111.951052 259 4074ft 116kts
17-Mar-20 16:35 46.605487 -111.978822 283 3852ft 22kts
17-Mar-20 16:36 46.605997 -111.984584 208 3849ft 4kts
17-Mar-20 16:36 46.604626 -111.984145 134 3856ft 10kts
17-Mar-20 16:38 46.603294 -111.983481 268 3858ft 1kts
17-Mar-20 16:38 46.603293 -111.983546 267 3858ft 0kts
17-Mar-20 16:39 46.603293 -111.983546 267 3858ft 0kts

Navigation Log

Ident Type
Flight plan parsing failed, navigation log unavailable